Time;durP1;ratioP1;P1;durP2;ratioP2;P2;SDS_P1;SDS_P2;PMS_P1;PMS_P2;Temp;Humidity;BMP_temperature;BMP_pressure;BME280_temperature;BME280_humidity;BME280_pressure;Samples;Min_cycle;Max_cycle;Signal;HPM_P1;HPM_P2
2022/12/21 00:01:16;;;;;;;;;;;8.30;99.90;;;7.71;100.00;97110.91;5060569;28;19916;-35
2022/12/21 00:03:43;;;;;;;;;;;8.30;99.90;;;7.72;100.00;97107.41;5071472;28;20009;-35
2022/12/21 00:06:10;;;;;;;;;;;8.40;99.90;;;7.58;100.00;97067.59;5064947;28;20375;-35
2022/12/21 00:08:41;;;;;;;;;;;8.40;99.90;;;7.74;100.00;97096.88;5066662;28;20467;-35
2022/12/21 00:11:08;;;;;;;;;;;8.40;99.90;;;7.75;100.00;97096.81;5053742;28;20481;-35
2022/12/21 00:13:34;;;;;;;;;;;8.40;99.90;;;7.76;100.00;97088.00;5059984;28;19924;-35
2022/12/21 00:16:02;;;;;;;;;;;8.40;99.90;;;7.79;100.00;97082.69;5068221;28;20398;-35
2022/12/21 00:18:31;;;;;;;;;;;8.40;99.90;;;7.82;100.00;97085.22;5073734;28;19923;-35
2022/12/21 00:21:04;;;;;;;;;;;8.50;99.90;;;7.71;100.00;97058.41;5062092;28;19917;-35
2022/12/21 00:23:31;;;;;;;;;;;8.50;99.90;;;7.91;100.00;97078.78;5060285;28;19924;-35
2022/12/21 00:26:01;;;;;;;;;;;8.50;99.90;;;7.94;100.00;97080.47;5067942;28;19966;-35
2022/12/21 00:28:27;;;;;;;;;;;8.60;99.90;;;7.98;100.00;97080.31;5068627;28;19955;-35
2022/12/21 00:30:52;;;;;;;;;;;8.60;99.90;;;8.02;100.00;97083.72;5052144;28;21707;-35
2022/12/21 00:33:18;;;;;;;;;;;8.60;99.90;;;7.88;100.00;97046.53;5058546;28;19927;-35
2022/12/21 00:35:48;;;;;;;;;;;8.70;99.90;;;8.13;100.00;97084.25;5069678;28;20331;-35
2022/12/21 00:38:14;;;;;;;;;;;8.80;99.90;;;8.19;100.00;97077.94;5069582;28;19916;-35
2022/12/21 00:40:39;;;;;;;;;;;8.80;99.90;;;8.21;100.00;97079.59;5067967;28;19936;-35
2022/12/21 00:43:05;;;;;;;;;;;8.90;99.90;;;8.30;100.00;97083.69;5068780;28;19916;-36
2022/12/21 00:45:30;;;;;;;;;;;8.90;99.90;;;8.34;100.00;97074.78;5069870;28;19947;-35
2022/12/21 00:47:56;;;;;;;;;;;9.00;99.90;;;8.21;100.00;97057.72;5067466;28;19951;-35
2022/12/21 00:50:22;;;;;;;;;;;9.00;99.90;;;8.39;100.00;97087.78;5065496;28;19931;-35
2022/12/21 00:52:48;;;;;;;;;;;9.00;99.90;;;8.23;100.00;97061.16;5055958;28;19930;-35
2022/12/21 00:55:13;;;;;;;;;;;9.00;99.90;;;8.38;100.00;97088.69;5065132;28;19927;-35
2022/12/21 00:57:39;;;;;;;;;;;9.00;99.90;;;8.41;100.00;97083.31;5064549;28;20289;-35
2022/12/21 01:00:05;;;;;;;;;;;9.00;99.90;;;8.41;100.00;97078.06;5069364;28;19924;-35
2022/12/21 01:02:30;;;;;;;;;;;9.00;99.90;;;8.43;100.00;97086.78;5065963;28;19924;-35
2022/12/21 01:04:56;;;;;;;;;;;9.00;99.90;;;8.40;100.00;97084.25;5067135;28;20396;-35
2022/12/21 01:07:22;;;;;;;;;;;9.00;99.90;;;8.39;100.00;97087.78;5070399;28;19966;-35
2022/12/21 01:09:47;;;;;;;;;;;9.00;99.90;;;8.36;100.00;97075.63;5076081;28;20351;-35
2022/12/21 01:12:13;;;;;;;;;;;9.00;99.90;;;8.36;100.00;97082.63;5070707;28;19947;-35
2022/12/21 01:14:39;;;;;;;;;;;9.00;99.90;;;8.29;100.00;97079.34;5072010;28;19928;-35
2022/12/21 01:17:04;;;;;;;;;;;9.00;99.90;;;8.32;100.00;97078.38;5074656;28;20150;-35
2022/12/21 01:19:30;;;;;;;;;;;8.90;99.90;;;8.27;100.00;97089.03;5070335;28;20026;-35
2022/12/21 01:21:55;;;;;;;;;;;8.90;99.90;;;8.25;100.00;97085.59;5067878;28;20311;-35
2022/12/21 01:24:21;;;;;;;;;;;8.90;99.90;;;8.27;100.00;97088.19;5071254;28;20419;-35
2022/12/21 01:26:47;;;;;;;;;;;8.90;99.90;;;8.21;100.00;97091.88;5063032;28;20044;-36
2022/12/21 01:29:13;;;;;;;;;;;8.90;99.90;;;8.18;100.00;97092.84;5071078;28;19931;-35
2022/12/21 01:31:39;;;;;;;;;;;8.80;99.90;;;8.15;100.00;97084.19;5068165;28;19931;-35
2022/12/21 01:34:05;;;;;;;;;;;8.80;99.90;;;8.12;100.00;97092.16;5065526;28;20181;-35
2022/12/21 01:36:31;;;;;;;;;;;8.80;99.90;;;8.08;100.00;97086.16;5062201;28;19946;-35
2022/12/21 01:38:56;;;;;;;;;;;8.70;99.90;;;8.02;100.00;97076.72;5070491;28;20552;-35
2022/12/21 01:41:25;;;;;;;;;;;8.70;99.90;;;8.01;100.00;97082.00;5069983;28;19916;-35
2022/12/21 01:44:02;;;;;;;;;;;8.70;99.90;;;7.99;100.00;97086.47;5060812;28;19924;-35
2022/12/21 01:46:34;;;;;;;;;;;8.60;99.90;;;8.01;100.00;97085.47;5066125;28;20437;-35
2022/12/21 01:49:22;;;;;;;;;;;8.70;99.90;;;7.98;100.00;97082.09;5070690;28;19930;-35
2022/12/21 01:51:51;;;;;;;;;;;8.60;99.90;;;8.00;100.00;97080.28;5070045;28;19992;-35
2022/12/21 01:54:21;;;;;;;;;;;8.60;99.90;;;7.97;100.00;97067.28;5078713;22;19937;-42
2022/12/21 01:56:49;;;;;;;;;;;8.60;99.90;;;7.95;100.00;97064.69;5048157;28;19920;-42
2022/12/21 01:59:36;;;;;;;;;;;8.60;99.90;;;7.95;100.00;97072.56;5050923;28;20023;-42
2022/12/21 02:02:04;;;;;;;;;;;8.60;99.90;;;7.94;100.00;97067.34;5051236;28;19928;-43
2022/12/21 02:04:29;;;;;;;;;;;8.60;99.90;;;7.96;100.00;97062.91;5056329;28;19924;-42
2022/12/21 02:06:56;;;;;;;;;;;8.60;99.90;;;7.95;100.00;97069.06;5068115;28;19920;-42
2022/12/21 02:09:24;;;;;;;;;;;8.60;99.90;;;7.73;100.00;97032.97;5070386;28;19927;-42
2022/12/21 02:11:51;;;;;;;;;;;8.60;99.90;;;7.74;100.00;97036.47;5073474;28;19938;-42
2022/12/21 02:14:17;;;;;;;;;;;8.50;99.90;;;7.87;100.00;97052.69;5067001;28;19920;-42
2022/12/21 02:17:06;;;;;;;;;;;8.50;99.90;;;7.86;100.00;97046.59;5066984;28;19920;-41
2022/12/21 02:19:47;;;;;;;;;;;8.50;99.90;;;7.86;100.00;97048.34;5070599;28;19951;-42
2022/12/21 02:22:50;;;;;;;;;;;8.50;99.90;;;7.86;100.00;97049.22;5065066;28;19931;-42
2022/12/21 02:25:59;;;;;;;;;;;8.50;99.90;;;7.91;100.00;97046.44;5069714;28;19978;-41
2022/12/21 02:28:50;;;;;;;;;;;8.50;99.90;;;8.05;100.00;97043.38;5063508;28;20474;-42
2022/12/21 02:31:26;;;;;;;;;;;8.60;99.90;;;8.10;100.00;97050.19;5063468;28;19936;-42
2022/12/21 02:34:05;;;;;;;;;;;8.70;99.90;;;8.22;100.00;97056.81;5067907;28;20015;-39
2022/12/21 02:36:54;;;;;;;;;;;8.80;99.90;;;8.27;100.00;97052.25;5065450;28;19925;-39
2022/12/21 02:39:32;;;;;;;;;;;8.80;99.90;;;8.28;100.00;97050.50;5069277;28;19946;-39
2022/12/21 02:42:06;;;;;;;;;;;8.90;99.90;;;8.36;100.00;97045.84;5063364;28;19915;-39
2022/12/21 02:44:54;;;;;;;;;;;8.90;99.90;;;8.32;100.00;97045.06;5066667;28;20011;-39
2022/12/21 02:47:31;;;;;;;;;;;9.00;99.90;;;8.39;100.00;97036.06;5071913;28;19920;-39
2022/12/21 02:50:09;;;;;;;;;;;9.00;99.90;;;8.35;100.00;97041.50;5066292;28;19943;-39
2022/12/21 02:52:41;;;;;;;;;;;9.00;99.90;;;8.38;100.00;97046.63;5061730;28;20204;-39
2022/12/21 02:55:10;;;;;;;;;;;9.00;99.90;;;8.38;100.00;97044.00;5067287;28;20380;-39
2022/12/21 02:57:38;;;;;;;;;;;9.00;99.90;;;8.39;100.00;97037.84;5067252;28;19923;-39
2022/12/21 03:00:07;;;;;;;;;;;9.00;99.90;;;8.36;100.00;97040.56;5066988;28;20288;-39
2022/12/21 03:02:45;;;;;;;;;;;9.00;99.90;;;8.35;100.00;97038.88;5066202;28;19932;-40
2022/12/21 03:05:25;;;;;;;;;;;9.00;99.90;;;8.32;100.00;97038.97;5064932;28;19924;-40
2022/12/21 03:08:10;;;;;;;;;;;9.00;99.90;;;8.33;100.00;97030.19;5070538;28;20298;-39
2022/12/21 03:10:57;;;;;;;;;;;9.00;99.90;;;8.32;100.00;97037.19;5067248;28;19935;-41
2022/12/21 03:13:33;;;;;;;;;;;8.90;99.90;;;8.28;100.00;97030.34;5065683;28;19947;-42
2022/12/21 03:16:13;;;;;;;;;;;8.90;99.90;;;8.32;100.00;97037.19;5065370;28;19924;-39
2022/12/21 03:18:57;;;;;;;;;;;8.90;99.90;;;8.29;100.00;97031.19;5065703;28;19923;-43
2022/12/21 03:21:31;;;;;;;;;;;8.90;99.90;;;8.28;100.00;97035.59;5065650;28;19919;-42
2022/12/21 03:24:22;;;;;;;;;;;8.90;99.90;;;8.30;100.00;97041.66;5054562;28;19924;-41
2022/12/21 03:26:48;;;;;;;;;;;8.90;99.90;;;8.33;100.00;97038.06;5060839;28;19922;-42
2022/12/21 03:29:16;;;;;;;;;;;8.90;99.90;;;8.31;100.00;97032.88;5069021;28;20250;-41
2022/12/21 03:31:46;;;;;;;;;;;8.90;99.90;;;8.32;100.00;97038.97;5066471;28;20313;-41
2022/12/21 03:34:27;;;;;;;;;;;9.00;99.90;;;8.32;100.00;97042.44;5067745;28;20075;-41
2022/12/21 03:37:05;;;;;;;;;;;9.00;99.90;;;8.33;100.00;97032.81;5066272;28;19924;-42
2022/12/21 03:39:32;;;;;;;;;;;9.00;99.90;;;8.28;100.00;97016.34;5069788;28;19916;-41
2022/12/21 03:42:05;;;;;;;;;;;9.00;99.90;;;8.28;100.00;97029.47;5070946;28;20315;-41
2022/12/21 03:44:36;;;;;;;;;;;8.90;99.90;;;8.26;100.00;97034.78;5065950;28;20269;-42
2022/12/21 03:47:07;;;;;;;;;;;8.90;99.90;;;8.26;100.00;97023.44;5074785;28;20049;-41
2022/12/21 03:49:36;;;;;;;;;;;8.90;99.90;;;8.30;100.00;97025.03;5069421;28;20202;-42
2022/12/21 03:52:10;;;;;;;;;;;8.90;99.90;;;8.25;100.00;97024.31;5069108;28;19920;-43
2022/12/21 03:54:53;;;;;;;;;;;8.90;99.90;;;8.20;100.00;97014.84;5067582;28;19971;-43
2022/12/21 03:57:19;;;;;;;;;;;8.80;99.90;;;8.17;100.00;97012.31;5069023;28;19924;-44
2022/12/21 03:59:48;;;;;;;;;;;8.80;99.90;;;8.12;100.00;97008.97;5070062;28;20396;-44
2022/12/21 04:02:25;;;;;;;;;;;8.80;99.90;;;8.11;100.00;97009.91;5065513;28;19982;-44
2022/12/21 04:05:03;;;;;;;;;;;8.80;99.90;;;8.06;100.00;97014.44;5065452;28;19920;-44
2022/12/21 04:07:30;;;;;;;;;;;8.70;99.90;;;8.05;100.00;97017.97;5068798;28;19926;-46
2022/12/21 04:09:57;;;;;;;;;;;8.70;99.90;;;8.06;100.00;97014.44;5044151;28;19994;-44
2022/12/21 04:12:39;;;;;;;;;;;8.70;99.90;;;8.03;100.00;97004.88;5063588;28;19920;-43
2022/12/21 04:15:23;;;;;;;;;;;8.70;99.90;;;8.08;100.00;97007.38;5065074;28;19939;-44
2022/12/21 04:17:50;;;;;;;;;;;8.70;99.90;;;8.07;100.00;97010.03;5065546;28;19928;-44
2022/12/21 04:20:23;;;;;;;;;;;8.70;99.90;;;8.07;100.00;97015.28;5069727;28;20291;-43
2022/12/21 04:28:27;;;;;;;;;;;8.70;99.90;;;8.13;100.00;97007.19;5068271;28;19927;-43
2022/12/21 04:30:53;;;;;;;;;;;8.70;99.90;;;8.16;100.00;97000.06;5068520;28;20498;-44
2022/12/21 04:33:20;;;;;;;;;;;8.80;99.90;;;8.19;100.00;97005.22;5071043;28;19931;-44
2022/12/21 04:38:33;;;;;;;;;;;8.80;99.90;;;8.22;100.00;97001.66;5068648;28;20089;-44
2022/12/21 04:40:59;;;;;;;;;;;8.80;99.90;;;8.24;100.00;97002.47;5069340;28;19924;-43
2022/12/21 04:43:25;;;;;;;;;;;8.90;99.90;;;8.25;100.00;97004.16;5070614;28;20033;-43
2022/12/21 04:46:12;;;;;;;;;;;8.90;99.90;;;8.29;100.00;97010.16;5066975;28;20429;-43
2022/12/21 04:48:37;;;;;;;;;;;8.90;99.90;;;8.22;100.00;96997.25;5065465;28;19946;-43
2022/12/21 04:51:18;;;;;;;;;;;8.90;99.90;;;8.26;100.00;97000.63;5059503;28;20367;-45
2022/12/21 04:53:44;;;;;;;;;;;8.90;99.90;;;8.27;100.00;96997.09;5070304;28;19947;-44
2022/12/21 04:56:09;;;;;;;;;;;8.90;99.90;;;8.29;100.00;97002.28;5058666;28;20474;-44
2022/12/21 04:58:36;;;;;;;;;;;8.90;99.90;;;8.29;100.00;96992.66;5065982;28;19924;-43
2022/12/21 05:01:07;;;;;;;;;;;8.90;99.90;;;8.33;100.00;96996.03;5058409;28;19935;-44
2022/12/21 05:03:33;;;;;;;;;;;8.90;99.90;;;8.31;100.00;97000.47;5064468;28;19916;-44
2022/12/21 05:05:58;;;;;;;;;;;8.90;99.90;;;8.32;100.00;96989.91;5064905;28;19924;-44
2022/12/21 05:08:24;;;;;;;;;;;8.90;99.90;;;8.33;100.00;96990.78;5061240;28;20011;-43
2022/12/21 05:10:50;;;;;;;;;;;9.00;99.90;;;8.30;100.00;96988.25;5065826;28;20326;-43
2022/12/21 05:13:16;;;;;;;;;;;9.00;99.90;;;8.38;100.00;96991.47;5060775;28;19926;-46
2022/12/21 05:15:41;;;;;;;;;;;9.00;99.90;;;8.21;100.00;96965.78;5060912;28;19924;-43
2022/12/21 05:18:07;;;;;;;;;;;9.00;99.90;;;8.39;100.00;96994.03;5067836;28;20533;-43
2022/12/21 05:20:32;;;;;;;;;;;9.00;99.90;;;8.25;100.00;96967.38;5065125;28;20292;-46
2022/12/21 05:22:58;;;;;;;;;;;9.00;99.90;;;8.43;100.00;96991.34;5064348;28;19959;-43
2022/12/21 05:25:24;;;;;;;;;;;9.00;99.90;;;8.41;100.00;96992.22;5061958;28;19927;-43
2022/12/21 05:27:49;;;;;;;;;;;9.00;99.90;;;8.44;100.00;96988.66;5061861;28;19950;-44
2022/12/21 05:30:15;;;;;;;;;;;9.10;99.90;;;8.46;100.00;96994.72;5069896;28;20136;-43
2022/12/21 05:32:41;;;;;;;;;;;9.10;99.90;;;8.46;100.00;96986.00;5066817;28;19959;-43
2022/12/21 05:35:07;;;;;;;;;;;9.10;99.90;;;8.46;100.00;96994.72;5068558;28;20531;-43
2022/12/21 05:37:33;;;;;;;;;;;9.10;99.90;;;8.46;100.00;96992.09;5067206;28;19979;-44
2022/12/21 05:39:59;;;;;;;;;;;9.10;99.90;;;8.51;100.00;96991.94;5064140;28;19964;-43
2022/12/21 05:42:24;;;;;;;;;;;9.10;99.90;;;8.52;100.00;96989.22;5060165;28;20027;-43
2022/12/21 05:44:50;;;;;;;;;;;9.10;99.90;;;8.49;100.00;96985.84;5065157;28;20087;-45
2022/12/21 05:47:15;;;;;;;;;;;9.10;99.90;;;8.46;100.00;96976.31;5070632;28;19919;-45
2022/12/21 05:49:41;;;;;;;;;;;9.10;99.90;;;8.53;100.00;96987.50;5064008;28;19947;-44
2022/12/21 05:52:07;;;;;;;;;;;9.10;99.90;;;8.53;100.00;96990.13;5064832;28;20403;-44
2022/12/21 05:54:32;;;;;;;;;;;9.10;99.90;;;8.52;100.00;96994.50;5062184;28;20019;-43
2022/12/21 05:56:58;;;;;;;;;;;9.10;99.90;;;8.52;100.00;96998.91;5056463;28;19978;-43
2022/12/21 05:59:23;;;;;;;;;;;9.10;99.90;;;8.52;100.00;96991.00;5062954;28;20528;-44
2022/12/21 06:01:49;;;;;;;;;;;9.10;99.90;;;8.52;100.00;96997.13;5047914;28;20307;-44
2022/12/21 06:04:14;;;;;;;;;;;9.10;99.90;;;8.50;100.00;96988.44;5053491;28;19924;-43
2022/12/21 06:06:40;;;;;;;;;;;9.10;99.90;;;8.50;100.00;96992.84;5065958;28;20046;-44
2022/12/21 06:09:06;;;;;;;;;;;9.10;99.90;;;8.49;100.00;96992.00;5064811;28;19931;-44
2022/12/21 06:11:32;;;;;;;;;;;9.10;99.90;;;8.35;100.00;96962.69;5067504;28;20356;-44
2022/12/21 06:13:57;;;;;;;;;;;9.10;99.90;;;8.44;100.00;96985.19;5062891;28;19924;-44
2022/12/21 06:16:25;;;;;;;;;;;9.00;99.90;;;8.45;100.00;96990.38;5064056;28;20392;-44
2022/12/21 06:18:51;;;;;;;;;;;9.10;99.90;;;8.44;100.00;96988.66;5059536;28;20364;-44
2022/12/21 06:21:17;;;;;;;;;;;9.10;99.90;;;8.43;100.00;96983.47;5063911;28;19995;-43
2022/12/21 06:23:44;;;;;;;;;;;9.00;99.90;;;8.38;100.00;96981.81;5064206;28;19955;-44
2022/12/21 06:26:15;;;;;;;;;;;9.00;99.90;;;8.41;100.00;96988.72;5062778;28;19924;-44
2022/12/21 06:28:41;;;;;;;;;;;9.00;99.90;;;8.42;100.00;96990.50;5062169;28;20030;-44
2022/12/21 06:31:09;;;;;;;;;;;9.00;99.90;;;8.42;100.00;96990.50;5066356;28;19930;-44
2022/12/21 06:33:35;;;;;;;;;;;9.00;99.90;;;8.44;100.00;96983.41;5063866;28;19978;-44
2022/12/21 06:36:00;;;;;;;;;;;9.00;99.90;;;8.47;100.00;96995.56;5067350;28;20752;-44
2022/12/21 06:38:27;;;;;;;;;;;9.00;99.90;;;8.46;100.00;96991.25;5068521;28;19928;-43
2022/12/21 06:40:57;;;;;;;;;;;9.10;99.90;;;8.47;100.00;96993.81;5068242;28;19924;-43
2022/12/21 06:43:23;;;;;;;;;;;9.10;99.90;;;8.50;100.00;96990.22;5066496;28;19924;-44
2022/12/21 06:45:57;;;;;;;;;;;9.10;99.90;;;8.49;100.00;96993.75;5063440;28;19931;-44
2022/12/21 06:48:23;;;;;;;;;;;9.10;99.90;;;8.50;100.00;96991.06;5061634;28;19958;-43
2022/12/21 06:50:56;;;;;;;;;;;9.10;99.90;;;8.50;100.00;96995.47;5063441;28;19949;-44
2022/12/21 06:53:23;;;;;;;;;;;9.10;99.90;;;8.52;100.00;96989.22;5058126;28;20229;-44
2022/12/21 06:55:49;;;;;;;;;;;9.10;99.90;;;8.52;100.00;96989.22;5051982;28;19924;-45
2022/12/21 06:58:15;;;;;;;;;;;9.10;99.90;;;8.41;100.00;96965.94;5066544;28;20047;-43
2022/12/21 07:00:41;;;;;;;;;;;9.10;99.90;;;8.54;100.00;97000.56;5060966;28;19934;-48
2022/12/21 07:03:07;;;;;;;;;;;9.10;99.90;;;8.46;100.00;96975.47;5054551;28;19916;-44
2022/12/21 07:05:33;;;;;;;;;;;9.20;99.90;;;8.41;100.00;96967.72;5062381;28;19956;-47
2022/12/21 07:07:59;;;;;;;;;;;9.20;99.90;;;8.52;100.00;96988.38;5068124;28;19971;-46
2022/12/21 07:10:25;;;;;;;;;;;9.20;99.90;;;8.59;100.00;97001.25;5065240;28;20383;-46
2022/12/21 07:12:51;;;;;;;;;;;9.20;99.90;;;8.63;100.00;97001.16;5075382;28;20095;-44
2022/12/21 07:15:16;;;;;;;;;;;9.20;99.90;;;8.63;100.00;96999.38;5068464;28;19935;-46
2022/12/21 07:17:42;;;;;;;;;;;9.20;99.90;;;8.65;100.00;97002.81;5074431;28;19963;-45
2022/12/21 07:20:08;;;;;;;;;;;9.20;99.90;;;8.64;100.00;97010.75;5057035;28;19935;-47
2022/12/21 07:22:33;;;;;;;;;;;9.20;99.90;;;8.56;100.00;97001.38;5060170;28;20026;-46
2022/12/21 07:24:59;;;;;;;;;;;9.20;99.90;;;8.63;100.00;97011.66;5066475;28;19924;-45
2022/12/21 07:27:25;;;;;;;;;;;9.20;99.90;;;8.68;100.00;97007.94;5070283;28;20406;-44
2022/12/21 07:29:50;;;;;;;;;;;9.30;99.90;;;8.70;100.00;97013.16;5071124;28;19967;-46
2022/12/21 07:32:16;;;;;;;;;;;9.30;99.90;;;8.69;100.00;97020.19;5071815;28;19916;-44
2022/12/21 07:34:41;;;;;;;;;;;9.30;99.90;;;8.68;100.00;97020.25;5072419;28;20285;-44
2022/12/21 07:37:07;;;;;;;;;;;9.30;99.90;;;8.66;100.00;97022.94;5072760;28;19931;-44
2022/12/21 07:39:33;;;;;;;;;;;9.30;99.90;;;8.66;100.00;97020.28;5063370;28;19954;-43
2022/12/21 07:41:58;;;;;;;;;;;9.30;99.90;;;8.67;100.00;97021.16;5069559;28;19932;-44
2022/12/21 07:44:24;;;;;;;;;;;9.30;99.90;;;8.70;100.00;97021.03;5068902;28;19959;-45
2022/12/21 07:46:51;;;;;;;;;;;9.30;99.90;;;8.70;100.00;97021.91;5068730;28;20074;-44
2022/12/21 07:49:16;;;;;;;;;;;9.30;99.90;;;8.70;100.00;97024.53;5072350;28;19924;-45
2022/12/21 07:51:42;;;;;;;;;;;9.30;99.90;;;8.71;100.00;97022.78;5070622;28;19924;-44
2022/12/21 07:56:39;;;;;;;;;;;9.30;99.90;;;8.70;100.00;97024.53;5030786;28;20303;-40
2022/12/21 07:59:04;;;;;;;;;;;9.30;99.90;;;8.69;100.00;97032.50;5031824;28;19979;-39
2022/12/21 08:01:30;;;;;;;;;;;9.30;99.90;;;8.68;100.00;97034.25;5031322;28;19917;-40
2022/12/21 08:03:57;;;;;;;;;;;9.30;99.90;;;8.68;100.00;97028.13;5028410;28;20411;-39
2022/12/21 08:06:23;;;;;;;;;;;9.30;99.90;;;8.67;100.00;97037.81;5031646;28;19917;-39
2022/12/21 08:08:49;;;;;;;;;;;9.20;99.90;;;8.65;100.00;97037.00;5032183;28;20379;-39
2022/12/21 08:11:17;;;;;;;;;;;9.20;99.90;;;8.62;100.00;97039.72;5023056;28;19925;-40
2022/12/21 08:13:43;;;;;;;;;;;9.20;99.90;;;8.65;100.00;97044.88;5027280;28;19925;-39
2022/12/21 08:16:10;;;;;;;;;;;9.20;99.90;;;8.60;100.00;97045.03;5031819;28;20040;-39
2022/12/21 08:18:37;;;;;;;;;;;9.20;99.90;;;8.60;100.00;97042.41;5030559;28;19970;-39
2022/12/21 08:21:02;;;;;;;;;;;9.20;99.90;;;8.59;100.00;97042.47;5029665;28;19979;-39
2022/12/21 08:23:28;;;;;;;;;;;9.20;99.90;;;8.62;100.00;97039.72;5010702;28;20438;-39
2022/12/21 08:25:54;;;;;;;;;;;9.20;99.90;;;8.52;100.00;97041.78;5029339;28;19921;-39
2022/12/21 08:28:19;;;;;;;;;;;9.20;99.90;;;8.56;100.00;97037.28;5029514;28;19960;-39
2022/12/21 08:30:45;;;;;;;;;;;9.20;99.90;;;8.58;100.00;97048.63;5025952;28;20476;-39
2022/12/21 08:33:10;;;;;;;;;;;9.20;99.90;;;8.60;100.00;97050.28;5024999;28;20015;-39
2022/12/21 08:35:36;;;;;;;;;;;9.20;99.90;;;8.56;100.00;97043.44;5025963;28;19969;-39
2022/12/21 08:38:02;;;;;;;;;;;9.20;99.90;;;8.60;100.00;97060.81;5027062;28;19924;-40
2022/12/21 08:40:28;;;;;;;;;;;9.20;99.90;;;8.51;100.00;97032.22;5029687;28;19932;-39
2022/12/21 08:42:54;;;;;;;;;;;9.20;99.90;;;8.63;100.00;97045.84;5021849;28;20328;-39
2022/12/21 08:45:19;;;;;;;;;;;9.20;99.90;;;8.52;100.00;97033.06;5025582;28;20008;-39
2022/12/21 08:47:47;;;;;;;;;;;9.20;99.90;;;8.63;100.00;97051.94;5015371;28;20430;-39
2022/12/21 08:50:13;;;;;;;;;;;9.20;99.90;;;8.63;100.00;97065.09;5025740;28;19929;-39
2022/12/21 08:52:39;;;;;;;;;;;9.20;99.90;;;8.56;100.00;97055.69;5025187;28;20537;-42
2022/12/21 08:55:04;;;;;;;;;;;9.20;99.90;;;8.57;100.00;97053.03;5015471;28;21288;-39
2022/12/21 08:57:30;;;;;;;;;;;9.30;99.90;;;8.74;100.00;97069.97;5023480;28;20023;-39
2022/12/21 08:59:55;;;;;;;;;;;9.30;99.90;;;8.75;100.00;97069.06;5023053;28;19963;-39
2022/12/21 09:02:21;;;;;;;;;;;9.40;99.90;;;8.77;100.00;97054.09;5012855;28;19944;-39
2022/12/21 09:04:47;;;;;;;;;;;9.40;99.90;;;8.85;100.00;97061.75;5014665;28;20025;-39
2022/12/21 09:07:12;;;;;;;;;;;9.40;99.90;;;8.88;100.00;97061.59;5027561;28;20430;-40
2022/12/21 09:09:38;;;;;;;;;;;9.50;99.90;;;8.93;100.00;97064.94;5029396;28;19925;-40
2022/12/21 09:12:04;;;;;;;;;;;9.50;99.90;;;8.97;100.00;97056.91;5026517;28;19953;-40
2022/12/21 09:14:29;;;;;;;;;;;9.50;99.90;;;8.96;100.00;97060.44;5030069;28;20625;-40
2022/12/21 09:16:55;;;;;;;;;;;9.60;99.90;;;8.91;100.00;97062.34;5022895;28;19987;-40
2022/12/21 09:19:21;;;;;;;;;;;9.50;99.90;;;8.93;100.00;97054.41;5032598;28;20439;-40
2022/12/21 09:21:46;;;;;;;;;;;9.60;99.90;;;8.95;100.00;97057.84;5033068;28;19921;-39
2022/12/21 09:24:13;;;;;;;;;;;9.60;99.90;;;8.91;100.00;97046.56;5030276;28;19917;-39
2022/12/21 09:26:38;;;;;;;;;;;9.60;99.90;;;8.92;100.00;97057.97;5031089;28;19921;-39
2022/12/21 09:29:04;;;;;;;;;;;9.60;99.90;;;8.94;100.00;97062.25;5028374;28;20018;-39
2022/12/21 09:31:29;;;;;;;;;;;9.60;99.90;;;8.95;100.00;97076.25;5030866;28;20230;-40
2022/12/21 09:33:56;;;;;;;;;;;9.60;99.90;;;8.88;100.00;97062.50;5029500;28;20380;-39
2022/12/21 09:36:23;;;;;;;;;;;9.50;99.90;;;8.94;100.00;97066.66;5027840;28;20068;-39
2022/12/21 09:38:49;;;;;;;;;;;9.60;99.90;;;8.95;100.00;97063.09;5027655;28;19928;-39
2022/12/21 09:41:38;;;;;;;;;;;9.60;99.90;;;8.98;100.00;97074.38;5027514;28;19925;-39
2022/12/21 09:44:42;;;;;;;;;;;9.60;99.90;;;9.00;100.00;97063.81;5005473;28;20396;-39
2022/12/21 09:47:13;;;;;;;;;;;9.60;99.90;;;9.01;100.00;97070.78;5023523;28;19921;-40
2022/12/21 09:50:00;;;;;;;;;;;9.60;99.90;;;9.03;100.00;97065.47;5007329;28;19925;-39
2022/12/21 09:52:30;;;;;;;;;;;9.60;99.90;;;9.01;100.00;97067.28;5019978;28;20617;-39
2022/12/21 09:55:02;;;;;;;;;;;9.60;99.90;;;8.98;100.00;97071.75;5013178;28;20377;-39
2022/12/21 09:57:35;;;;;;;;;;;9.60;99.90;;;9.03;100.00;97068.13;5007377;28;20066;-39
2022/12/21 10:00:07;;;;;;;;;;;9.60;99.90;;;9.05;100.00;97080.28;5021189;28;20431;-39
2022/12/21 10:02:43;;;;;;;;;;;9.70;99.90;;;9.12;100.00;97081.78;5030243;28;20002;-39
2022/12/21 10:05:19;;;;;;;;;;;9.70;99.90;;;9.14;100.00;97074.69;5021155;28;19917;-39
2022/12/21 10:07:56;;;;;;;;;;;9.80;99.90;;;9.20;100.00;97081.50;5013279;28;19924;-39
2022/12/21 10:10:39;;;;;;;;;;;9.80;99.90;;;9.27;100.00;97063.72;5021899;28;20126;-39
2022/12/21 10:13:04;;;;;;;;;;;9.90;99.90;;;9.39;100.00;97067.66;5017003;28;19920;-39
2022/12/21 10:15:30;;;;;;;;;;;10.00;99.90;;;9.48;100.00;97078.69;5020801;28;20363;-39
2022/12/21 10:18:01;;;;;;;;;;;10.10;99.90;;;9.54;100.00;97082.88;5024415;28;19917;-39
2022/12/21 10:20:44;;;;;;;;;;;10.10;99.90;;;9.50;100.00;97091.81;5028248;28;19920;-39
2022/12/21 10:23:32;;;;;;;;;;;10.10;99.90;;;9.53;100.00;97091.69;5028642;28;19916;-40
2022/12/21 10:26:02;;;;;;;;;;;10.20;99.90;;;9.53;100.00;97076.75;5027712;28;20184;-39
2022/12/21 10:28:58;;;;;;;;;;;10.10;99.90;;;9.62;100.00;97085.19;5029256;28;19921;-39
2022/12/21 10:31:40;;;;;;;;;;;10.20;99.90;;;9.62;100.00;97090.47;5019131;28;20011;-39
2022/12/21 10:34:19;;;;;;;;;;;10.20;99.90;;;9.71;100.00;97091.00;5025338;28;19925;-39
2022/12/21 10:36:47;;;;;;;;;;;10.30;99.90;;;9.70;100.00;97084.00;5004024;28;20208;-39
2022/12/21 10:39:15;;;;;;;;;;;10.40;99.90;;;9.74;100.00;97082.09;5019353;28;20365;-39
2022/12/21 10:41:43;;;;;;;;;;;10.40;99.90;;;9.82;100.00;97087.94;5026680;28;19921;-39
2022/12/21 10:44:11;;;;;;;;;;;10.40;99.90;;;9.84;100.00;97080.00;5028125;28;19925;-39
2022/12/21 10:46:37;;;;;;;;;;;10.50;99.90;;;9.83;100.00;97081.75;5019795;28;19921;-39
2022/12/21 10:49:25;;;;;;;;;;;10.50;99.90;;;9.78;100.00;97080.22;5006763;28;19917;-40
2022/12/21 10:51:51;;;;;;;;;;;10.40;99.90;;;9.66;100.00;97063.97;5020316;28;20376;-39
2022/12/21 10:54:25;;;;;;;;;;;10.40;99.90;;;9.66;100.00;97082.41;5029732;28;19925;-39
2022/12/21 10:56:51;;;;;;;;;;;10.20;99.90;;;9.51;100.00;97082.97;5029927;28;20043;-40
2022/12/21 10:59:24;;;;;;;;;;;10.10;99.90;;;9.39;100.00;97079.06;5033446;28;19916;-40
2022/12/21 11:01:50;;;;;;;;;;;10.00;99.90;;;9.35;100.00;97077.47;5028053;28;19921;-40
2022/12/21 11:04:26;;;;;;;;;;;9.90;99.90;;;9.34;100.00;97076.56;5001560;28;19960;-40
2022/12/21 11:06:55;;;;;;;;;;;9.90;99.90;;;9.47;100.00;97076.13;5029920;28;20464;-40
2022/12/21 11:09:32;;;;;;;;;;;10.00;99.90;;;9.61;100.00;97070.34;5031132;28;19920;-40
2022/12/21 11:12:20;;;;;;;;;;;10.10;99.90;;;9.73;100.00;97073.34;5034718;28;19975;-39
2022/12/21 11:14:50;;;;;;;;;;;10.20;99.90;;;9.73;100.00;97061.97;5013846;28;19936;-39
2022/12/21 11:17:20;;;;;;;;;;;10.30;99.90;;;9.53;100.00;97046.94;5030538;28;20372;-39
2022/12/21 11:19:46;;;;;;;;;;;10.20;99.90;;;9.55;100.00;97059.13;5031268;28;20375;-40
2022/12/21 11:22:13;;;;;;;;;;;10.10;99.90;;;9.44;100.00;97063.06;5026870;28;20339;-39
2022/12/21 11:24:40;;;;;;;;;;;10.00;99.90;;;9.41;100.00;97060.56;5004963;28;19921;-39
2022/12/21 11:27:12;;;;;;;;;;;10.00;99.90;;;9.39;100.00;97057.16;5015329;28;19931;-39
2022/12/21 11:29:47;;;;;;;;;;;10.00;99.90;;;9.38;100.00;97064.16;5021223;28;20050;-39
2022/12/21 11:32:13;;;;;;;;;;;10.00;99.90;;;9.36;100.00;97066.00;5032397;28;19920;-39
2022/12/21 11:34:42;;;;;;;;;;;10.00;99.90;;;9.36;100.00;97068.63;5026835;28;19936;-39
2022/12/21 11:37:35;;;;;;;;;;;10.00;99.90;;;9.44;100.00;97069.22;5015620;28;20177;-39
2022/12/21 11:40:14;;;;;;;;;;;10.00;99.90;;;9.53;100.00;97071.50;5029098;28;19944;-39
2022/12/21 11:42:51;;;;;;;;;;;10.20;99.90;;;9.74;100.00;97075.09;5028378;28;19998;-39
2022/12/21 11:45:30;;;;;;;;;;;10.40;99.90;;;9.96;100.00;97074.25;5031349;28;20399;-39
2022/12/21 11:48:11;;;;;;;;;;;10.60;99.90;;;10.08;100.00;97063.19;5031923;28;19943;-39